createdAt,value
2018-10-09T00:00:37.397Z,12.23
2018-10-09T00:03:04.933Z,10.50
2018-10-09T00:05:32.540Z,10.73
2018-10-09T00:08:00.879Z,9.70
2018-10-09T00:10:28.441Z,9.67
2018-10-09T00:12:56.071Z,10.73
2018-10-09T00:15:23.637Z,13.15
2018-10-09T00:17:51.205Z,11.03
2018-10-09T00:20:18.799Z,10.33
2018-10-09T00:22:46.370Z,10.67
2018-10-09T00:25:14.033Z,12.73
2018-10-09T00:27:41.601Z,10.83
2018-10-09T00:30:09.936Z,11.20
2018-10-09T00:32:37.543Z,10.97
2018-10-09T00:35:05.120Z,10.13
2018-10-09T00:37:32.688Z,10.00
2018-10-09T00:40:00.291Z,13.73
2018-10-09T00:42:27.865Z,11.20
2018-10-09T00:44:56.069Z,11.33
2018-10-09T00:47:24.409Z,14.75
2018-10-09T00:49:51.976Z,13.90
2018-10-09T00:52:19.581Z,12.23
2018-10-09T00:54:48.416Z,12.43
2018-10-09T00:57:16.283Z,11.93
2018-10-09T00:59:43.889Z,12.17
2018-10-09T01:02:12.236Z,10.97
2018-10-09T01:04:39.792Z,10.90
2018-10-09T01:07:07.763Z,10.40
2018-10-09T01:09:35.371Z,9.37
2018-10-09T01:12:02.905Z,10.43
2018-10-09T01:14:30.515Z,10.37
2018-10-09T01:16:58.410Z,10.37
2018-10-09T01:19:25.987Z,10.50
2018-10-09T01:21:53.609Z,10.63
2018-10-09T01:24:21.913Z,9.10
2018-10-09T01:26:49.890Z,9.70
2018-10-09T01:29:17.460Z,9.87
2018-10-09T01:31:45.031Z,9.80
2018-10-09T01:34:12.625Z,9.00
2018-10-09T01:36:40.204Z,9.93
2018-10-09T01:39:07.775Z,9.37
2018-10-09T01:41:35.381Z,9.33
2018-10-09T01:44:02.956Z,9.40
2018-10-09T01:46:31.287Z,8.73
2018-10-09T01:48:59.276Z,9.03
2018-10-09T01:51:26.845Z,9.57
2018-10-09T01:53:54.414Z,9.83
2018-10-09T01:56:21.998Z,9.20
2018-10-09T01:58:50.330Z,9.20
2018-10-09T02:01:17.893Z,9.83
2018-10-09T02:03:45.474Z,9.50
2018-10-09T02:06:13.041Z,9.53
2018-10-09T02:08:40.598Z,12.32
2018-10-09T02:11:09.064Z,10.77
2018-10-09T02:13:36.629Z,11.17
2018-10-09T02:16:04.193Z,12.30
2018-10-09T02:18:31.789Z,12.03
2018-10-09T02:21:00.121Z,17.05
2018-10-09T02:23:27.694Z,11.67
2018-10-09T02:25:55.297Z,10.73
2018-10-09T02:28:23.636Z,10.53
2018-10-09T02:30:51.213Z,10.17
2018-10-09T02:33:18.825Z,12.48
2018-10-09T02:35:46.389Z,10.40
2018-10-09T02:38:13.953Z,9.47
2018-10-09T02:40:41.573Z,10.30
2018-10-09T02:43:09.144Z,9.67
2018-10-09T02:45:37.479Z,9.53
2018-10-09T02:48:05.074Z,10.83
2018-10-09T02:50:33.418Z,10.30
2018-10-09T02:53:00.998Z,11.43
2018-10-09T02:55:28.941Z,13.00
2018-10-09T02:57:56.510Z,12.80
2018-10-09T03:00:24.077Z,11.53
2018-10-09T03:02:51.685Z,10.47
2018-10-09T03:05:20.014Z,13.37
2018-10-09T03:07:47.581Z,9.43
2018-10-09T03:10:15.182Z,14.40
2018-10-09T03:12:43.512Z,13.60
2018-10-09T03:15:11.079Z,14.80
2018-10-09T03:17:38.721Z,16.47
2018-10-09T03:20:06.284Z,14.93
2018-10-09T03:22:33.853Z,14.87
2018-10-09T03:25:01.458Z,15.00
2018-10-09T03:27:29.788Z,18.85
2018-10-09T03:29:57.374Z,14.87
2018-10-09T03:32:24.970Z,14.70
2018-10-09T03:34:53.306Z,19.73
2018-10-09T03:37:21.387Z,14.13
2018-10-09T03:39:48.952Z,12.87
2018-10-09T03:42:16.517Z,13.40
2018-10-09T03:44:44.108Z,13.17
2018-10-09T03:47:11.682Z,12.43
2018-10-09T03:49:39.245Z,12.50
2018-10-09T03:52:06.841Z,11.57
2018-10-09T03:54:34.406Z,12.23
2018-10-09T03:57:01.980Z,11.17
2018-10-09T03:59:29.615Z,11.00
2018-10-09T04:01:57.216Z,11.73
2018-10-09T04:04:24.744Z,11.90
2018-10-09T04:06:52.337Z,11.37
2018-10-09T04:09:19.907Z,12.70
2018-10-09T04:11:47.550Z,13.33
2018-10-09T04:14:15.345Z,12.80
2018-10-09T04:16:43.683Z,12.40
2018-10-09T04:19:11.270Z,11.87
2018-10-09T04:21:38.830Z,11.13
2018-10-09T04:24:06.484Z,11.80
2018-10-09T04:26:34.058Z,11.93
2018-10-09T04:29:01.627Z,11.23
2018-10-09T04:31:29.996Z,11.00
2018-10-09T04:33:57.560Z,10.77
2018-10-09T04:36:25.128Z,11.03
2018-10-09T04:38:53.497Z,9.97
2018-10-09T04:41:21.062Z,10.27
2018-10-09T04:43:48.629Z,11.10
2018-10-09T04:46:16.280Z,13.03
2018-10-09T04:48:43.845Z,12.83
2018-10-09T04:51:11.407Z,12.80
2018-10-09T04:53:39.533Z,16.27
2018-10-09T04:56:07.124Z,15.77
2018-10-09T04:58:34.685Z,15.73
2018-10-09T05:01:02.293Z,17.03
2018-10-09T05:03:31.027Z,16.67
2018-10-09T05:05:58.678Z,18.57
2018-10-09T05:08:26.243Z,16.13
2018-10-09T05:10:53.804Z,18.60
2018-10-09T05:13:22.706Z,21.53
2018-10-09T05:15:50.322Z,19.70
2018-10-09T05:18:17.855Z,20.77
2018-10-09T05:20:46.220Z,23.40
2018-10-09T05:23:13.842Z,19.73
2018-10-09T05:25:41.374Z,21.48
2018-10-09T05:28:09.730Z,16.40
2018-10-09T05:30:37.301Z,18.83
2018-10-09T05:33:05.880Z,22.17
2018-10-09T05:35:33.448Z,20.20
2018-10-09T05:38:01.254Z,18.60
2018-10-09T05:40:29.255Z,21.93
2018-10-09T05:42:56.825Z,19.57
2018-10-09T05:45:24.404Z,17.57
2018-10-09T05:47:52.531Z,19.30
2018-10-09T05:50:20.104Z,15.93
2018-10-09T05:52:47.669Z,14.53
2018-10-09T05:55:15.764Z,13.67
2018-10-09T05:57:43.333Z,11.07
2018-10-09T06:00:10.896Z,9.27
2018-10-09T06:02:39.657Z,12.63
2018-10-09T06:05:07.219Z,11.13
2018-10-09T06:07:34.791Z,12.00
2018-10-09T06:10:02.476Z,12.57
2018-10-09T06:12:30.009Z,11.23
2018-10-09T06:14:57.572Z,11.73
2018-10-09T06:17:25.218Z,12.60
2018-10-09T06:19:52.792Z,12.33
2018-10-09T06:22:20.465Z,14.87
2018-10-09T06:24:47.940Z,13.73
2018-10-09T06:27:15.506Z,16.33
2018-10-09T06:29:43.124Z,14.93
2018-10-09T06:32:10.717Z,14.03
2018-10-09T06:34:38.567Z,14.43
2018-10-09T06:37:06.768Z,21.60
2018-10-09T06:39:34.333Z,14.40
2018-10-09T06:42:01.901Z,13.43
2018-10-09T06:44:30.367Z,12.07
2018-10-09T06:46:58.315Z,12.17
2018-10-09T06:49:25.883Z,13.43
2018-10-09T06:51:53.527Z,12.80
2018-10-09T06:54:21.153Z,13.43
2018-10-09T06:56:48.656Z,12.80
2018-10-09T06:59:16.299Z,12.00
2018-10-09T07:01:43.865Z,13.20
2018-10-09T07:04:11.451Z,12.40
2018-10-09T07:06:39.115Z,12.33
2018-10-09T07:09:06.682Z,13.60
2018-10-09T07:11:34.311Z,11.03
2018-10-09T07:14:01.882Z,16.80
2018-10-09T07:16:29.446Z,13.20
2018-10-09T07:18:57.023Z,11.83
2018-10-09T07:21:25.205Z,11.90
2018-10-09T07:23:52.781Z,12.23
2018-10-09T07:26:20.348Z,12.87
2018-10-09T07:28:47.946Z,12.07
2018-10-09T07:31:15.515Z,17.33
2018-10-09T07:33:43.165Z,13.20
2018-10-09T07:36:10.771Z,13.00
2018-10-09T07:38:38.353Z,12.03
2018-10-09T07:41:06.527Z,13.43
2018-10-09T07:43:34.126Z,11.50
2018-10-09T07:46:01.665Z,14.10
2018-10-09T07:48:29.284Z,13.90
2018-10-09T07:50:56.858Z,14.17
2018-10-09T07:53:24.428Z,13.60
2018-10-09T07:55:52.487Z,17.35
2018-10-09T07:58:20.062Z,13.67
2018-10-09T08:00:47.642Z,14.00
2018-10-09T08:03:15.296Z,12.70
2018-10-09T08:05:42.867Z,17.70
2018-10-09T08:08:10.447Z,17.90
2018-10-09T08:10:38.989Z,14.30
2018-10-09T08:13:06.555Z,13.10
2018-10-09T08:15:34.138Z,13.43
2018-10-09T08:18:02.309Z,16.83
2018-10-09T08:20:29.884Z,13.83
2018-10-09T08:22:58.306Z,12.57
2018-10-09T08:25:26.340Z,12.67
2018-10-09T08:27:54.687Z,13.13
2018-10-09T08:30:22.258Z,12.63
2018-10-09T08:32:49.921Z,12.73
2018-10-09T08:35:17.498Z,12.40
2018-10-09T08:37:45.075Z,12.90
2018-10-09T08:40:14.156Z,11.83
2018-10-09T08:42:41.715Z,12.43
2018-10-09T08:45:09.282Z,12.30
2018-10-09T08:47:37.704Z,11.03
2018-10-09T08:50:05.281Z,11.27
2018-10-09T08:52:32.853Z,11.33
2018-10-09T08:55:00.473Z,12.60
2018-10-09T08:57:28.183Z,12.50
2018-10-09T08:59:55.687Z,11.60
2018-10-09T09:02:24.132Z,11.33
2018-10-09T09:04:51.701Z,13.52
2018-10-09T09:07:19.287Z,14.48
2018-10-09T09:09:47.516Z,11.90
2018-10-09T09:12:15.008Z,11.67
2018-10-09T09:14:43.761Z,12.93
2018-10-09T09:17:11.756Z,12.30
2018-10-09T09:19:39.326Z,12.80
2018-10-09T09:22:06.898Z,11.97
2018-10-09T09:24:35.306Z,12.60
2018-10-09T09:27:02.988Z,12.73
2018-10-09T09:29:30.458Z,16.05
2018-10-09T09:31:58.108Z,13.37
2018-10-09T09:34:25.707Z,13.03
2018-10-09T09:36:53.254Z,13.63
2018-10-09T09:39:20.915Z,12.77
2018-10-09T09:41:48.488Z,12.83
2018-10-09T09:44:16.061Z,13.33
2018-10-09T09:46:44.028Z,13.40
2018-10-09T09:49:11.609Z,13.13
2018-10-09T09:51:39.944Z,12.80
2018-10-09T09:54:07.574Z,12.80
2018-10-09T09:56:35.153Z,14.40
2018-10-09T09:59:03.351Z,14.53
2018-10-09T10:01:30.848Z,15.47
2018-10-09T10:03:59.193Z,14.53
2018-10-09T10:06:26.775Z,15.83
2018-10-09T10:08:54.404Z,14.13
2018-10-09T10:11:21.975Z,14.03
2018-10-09T10:13:49.556Z,14.17
2018-10-09T10:16:17.184Z,13.63
2018-10-09T10:18:44.755Z,14.43
2018-10-09T10:21:12.347Z,14.60
2018-10-09T10:23:40.407Z,16.92
2018-10-09T10:26:07.996Z,17.62
2018-10-09T10:28:36.340Z,15.75
2018-10-09T10:31:03.996Z,15.73
2018-10-09T10:33:31.612Z,17.65
2018-10-09T10:35:59.166Z,15.13
2018-10-09T10:38:27.560Z,15.17
2018-10-09T10:40:55.143Z,15.83
2018-10-09T10:43:22.714Z,14.50
2018-10-09T10:45:50.429Z,15.67
2018-10-09T10:48:17.994Z,15.93
2018-10-09T10:50:46.946Z,16.00
2018-10-09T10:53:14.548Z,16.67
2018-10-09T10:55:42.118Z,18.05
2018-10-09T10:58:09.762Z,16.83
2018-10-09T11:00:38.100Z,16.40
2018-10-09T11:03:05.675Z,22.43
2018-10-09T11:05:33.732Z,15.70
2018-10-09T11:08:01.419Z,16.20
2018-10-09T11:10:28.886Z,16.70
2018-10-09T11:12:56.535Z,16.27
2018-10-09T11:15:24.163Z,16.17
2018-10-09T11:17:52.478Z,16.13
2018-10-09T11:20:20.104Z,16.87
2018-10-09T11:22:47.674Z,18.00
2018-10-09T11:25:15.260Z,16.50
2018-10-09T11:27:43.742Z,17.67
2018-10-09T11:30:11.328Z,16.70
2018-10-09T11:32:38.944Z,19.75
2018-10-09T11:35:07.275Z,17.57
2018-10-09T11:37:34.847Z,16.80
2018-10-09T11:40:03.800Z,16.70
2018-10-09T11:42:31.380Z,17.27
2018-10-09T11:44:58.946Z,17.80
2018-10-09T11:47:27.094Z,16.80
2018-10-09T11:49:54.666Z,17.03
2018-10-09T11:52:22.238Z,17.33
2018-10-09T11:54:49.847Z,17.00
2018-10-09T11:57:17.507Z,18.03
2018-10-09T11:59:45.160Z,17.93
2018-10-09T12:02:12.739Z,18.13
2018-10-09T12:04:40.313Z,16.67
2018-10-09T12:07:08.300Z,17.10
2018-10-09T12:09:35.876Z,16.93
2018-10-09T12:12:03.448Z,16.33
2018-10-09T12:14:31.048Z,16.70
2018-10-09T12:16:58.625Z,16.67
2018-10-09T12:19:26.278Z,16.43
2018-10-09T12:21:53.882Z,16.00
2018-10-09T12:24:21.454Z,15.77
2018-10-09T12:26:49.569Z,16.03
2018-10-09T12:29:17.140Z,15.33
2018-10-09T12:31:44.711Z,15.33
2018-10-09T12:34:12.335Z,14.50
2018-10-09T12:36:40.675Z,14.90
2018-10-09T12:39:08.253Z,15.40
2018-10-09T12:41:36.359Z,14.33
2018-10-09T12:44:03.967Z,16.57
2018-10-09T12:46:31.516Z,15.23
2018-10-09T12:48:59.134Z,15.37
2018-10-09T12:51:27.482Z,16.57
2018-10-09T12:53:55.115Z,15.53
2018-10-09T12:56:22.692Z,17.85
2018-10-09T12:58:50.322Z,16.13
2018-10-09T13:01:17.873Z,15.87
2018-10-09T13:03:45.448Z,17.92
2018-10-09T13:06:13.078Z,14.10
2018-10-09T13:08:41.429Z,16.03
2018-10-09T13:11:09.015Z,14.80
2018-10-09T13:13:37.415Z,14.17
2018-10-09T13:16:05.779Z,13.33
2018-10-09T13:18:34.257Z,11.53
2018-10-09T13:21:01.973Z,11.43
2018-10-09T13:23:29.399Z,10.60
2018-10-09T13:25:57.724Z,10.30
2018-10-09T13:28:25.290Z,7.67
2018-10-09T13:30:52.886Z,8.67
2018-10-09T13:33:21.023Z,9.07
2018-10-09T13:35:48.594Z,8.10
2018-10-09T13:38:16.262Z,9.30
2018-10-09T13:40:44.569Z,8.67
2018-10-09T13:43:12.908Z,8.20
2018-10-09T13:45:40.472Z,8.30
2018-10-09T13:48:08.071Z,8.20
2018-10-09T13:50:36.450Z,8.10
2018-10-09T13:53:04.891Z,8.82
2018-10-09T13:55:32.463Z,8.23
2018-10-09T13:58:00.036Z,9.67
2018-10-09T14:00:27.706Z,9.25
2018-10-09T14:02:55.269Z,7.97
2018-10-09T14:05:22.811Z,8.17
2018-10-09T14:07:50.438Z,8.43
2018-10-09T14:10:18.062Z,8.80
2018-10-09T14:12:45.589Z,7.67
2018-10-09T14:15:13.646Z,8.27
2018-10-09T14:17:41.124Z,7.77
2018-10-09T14:20:08.691Z,7.90
2018-10-09T14:22:36.365Z,8.20
2018-10-09T14:25:03.860Z,9.65
2018-10-09T14:27:31.987Z,8.47
2018-10-09T14:29:59.556Z,7.10
2018-10-09T14:32:27.130Z,7.20
2018-10-09T14:34:55.561Z,7.77
2018-10-09T14:37:23.847Z,7.20
2018-10-09T14:39:51.426Z,8.13
2018-10-09T14:42:19.044Z,7.30
2018-10-09T14:44:46.623Z,6.60
2018-10-09T14:47:14.204Z,6.80
2018-10-09T14:49:41.831Z,7.33
2018-10-09T14:52:09.400Z,7.20
2018-10-09T14:54:36.965Z,6.70
2018-10-09T14:57:04.580Z,6.90
2018-10-09T14:59:32.926Z,6.73
2018-10-09T15:02:00.499Z,7.23
2018-10-09T15:04:28.123Z,7.57
2018-10-09T15:06:56.124Z,7.17
2018-10-09T15:09:23.692Z,8.07
2018-10-09T15:11:51.342Z,8.10
2018-10-09T15:14:18.915Z,7.90
2018-10-09T15:16:46.545Z,7.73
2018-10-09T15:19:14.584Z,7.80
2018-10-09T15:21:42.926Z,8.73
2018-10-09T15:24:10.509Z,8.90
2018-10-09T15:26:38.807Z,8.70
2018-10-09T15:29:06.438Z,8.90
2018-10-09T15:31:33.965Z,8.17
2018-10-09T15:34:01.940Z,8.40
2018-10-09T15:36:29.510Z,8.77
2018-10-09T15:38:57.085Z,8.43
2018-10-09T15:41:24.754Z,8.60
2018-10-09T15:43:52.315Z,8.40
2018-10-09T15:46:19.885Z,8.13
2018-10-09T15:48:48.420Z,8.97
2018-10-09T15:51:15.994Z,9.97
2018-10-09T15:53:43.577Z,9.30
2018-10-09T15:56:11.171Z,9.70
2018-10-09T15:58:39.507Z,10.27
2018-10-09T16:01:07.127Z,8.97
2018-10-09T16:03:35.457Z,9.07
2018-10-09T16:06:03.023Z,8.80
2018-10-09T16:08:30.635Z,8.57
2018-10-09T16:10:58.217Z,8.93
2018-10-09T16:13:25.866Z,8.70
2018-10-09T16:15:53.443Z,9.10
2018-10-09T16:18:21.015Z,8.80
2018-10-09T16:20:48.645Z,8.80
2018-10-09T16:23:16.975Z,9.00
2018-10-09T16:25:44.562Z,9.90
2018-10-09T16:28:12.986Z,9.77
2018-10-09T16:30:40.575Z,9.03
2018-10-09T16:33:08.146Z,8.93
2018-10-09T16:35:36.702Z,9.17
2018-10-09T16:38:04.261Z,9.17
2018-10-09T16:40:31.854Z,8.37
2018-10-09T16:42:59.447Z,8.57
2018-10-09T16:45:27.789Z,9.20
2018-10-09T16:47:55.429Z,9.60
2018-10-09T16:50:22.997Z,9.47
2018-10-09T16:52:50.726Z,9.40
2018-10-09T16:55:18.550Z,9.30
2018-10-09T16:57:46.124Z,9.40
2018-10-09T17:00:13.722Z,9.33
2018-10-09T17:02:41.945Z,9.93
2018-10-09T17:05:09.545Z,10.13
2018-10-09T17:07:37.883Z,9.80
2018-10-09T17:10:05.716Z,9.70
2018-10-09T17:12:33.301Z,10.80
2018-10-09T17:15:01.637Z,9.80
2018-10-09T17:17:29.966Z,9.83
2018-10-09T17:19:57.541Z,10.53
2018-10-09T17:22:25.735Z,9.93
2018-10-09T17:24:53.273Z,11.68
2018-10-09T17:27:20.861Z,11.70
2018-10-09T17:29:49.255Z,11.20
2018-10-09T17:32:16.828Z,11.77
2018-10-09T17:34:44.634Z,11.27
2018-10-09T17:37:13.121Z,10.90
2018-10-09T17:39:40.694Z,10.83
2018-10-09T17:42:08.326Z,11.67
2018-10-09T17:44:35.878Z,11.37
2018-10-09T17:47:03.513Z,11.87
2018-10-09T17:49:31.546Z,12.20
2018-10-09T17:51:59.129Z,11.47
2018-10-09T17:54:27.493Z,13.88
2018-10-09T17:56:55.599Z,13.00
2018-10-09T17:59:23.181Z,11.77
2018-10-09T18:01:50.761Z,12.23
2018-10-09T18:04:19.309Z,13.90
2018-10-09T18:06:47.656Z,12.70
2018-10-09T18:09:15.252Z,13.53
2018-10-09T18:11:42.907Z,13.20
2018-10-09T18:14:11.248Z,12.83
2018-10-09T18:16:38.827Z,13.30
2018-10-09T18:19:06.934Z,13.50
2018-10-09T18:21:34.509Z,12.63
2018-10-09T18:24:02.104Z,12.57
2018-10-09T18:26:29.795Z,13.30
2018-10-09T18:28:58.549Z,12.27
2018-10-09T18:31:27.030Z,12.10
2018-10-09T18:33:54.614Z,12.00
2018-10-09T18:36:22.191Z,12.30
2018-10-09T18:38:50.585Z,14.85
2018-10-09T18:41:18.374Z,12.97
2018-10-09T18:43:45.825Z,12.07
2018-10-09T18:46:13.435Z,13.27
2018-10-09T18:48:41.020Z,12.83
2018-10-09T18:51:09.005Z,16.45
2018-10-09T18:53:37.347Z,14.93
2018-10-09T18:56:04.923Z,14.03
2018-10-09T18:58:32.556Z,12.70
2018-10-09T19:01:00.132Z,12.97
2018-10-09T19:03:27.706Z,13.17
2018-10-09T19:05:55.325Z,13.13
2018-10-09T19:08:22.894Z,12.83
2018-10-09T19:10:50.659Z,12.90
2018-10-09T19:13:18.236Z,13.50
2018-10-09T19:15:45.764Z,14.13
2018-10-09T19:18:13.802Z,13.97
2018-10-09T19:20:42.183Z,14.00
2018-10-09T19:23:09.750Z,13.60
2018-10-09T19:25:38.117Z,13.77
2018-10-09T19:28:05.688Z,14.37
2018-10-09T19:30:34.105Z,14.63
2018-10-09T19:33:01.688Z,15.27
2018-10-09T19:35:29.269Z,14.93
2018-10-09T19:37:56.893Z,14.83
2018-10-09T19:40:24.461Z,15.27
2018-10-09T19:42:52.038Z,14.33
2018-10-09T19:45:19.673Z,17.77
2018-10-09T19:47:47.251Z,14.27
2018-10-09T19:50:14.835Z,13.57
2018-10-09T19:52:42.470Z,15.10
2018-10-09T19:55:10.048Z,15.40
2018-10-09T19:57:37.642Z,15.00
2018-10-09T20:00:05.298Z,14.10
2018-10-09T20:02:32.934Z,14.30
2018-10-09T20:05:00.533Z,14.00
2018-10-09T20:07:28.685Z,13.30
2018-10-09T20:09:56.263Z,14.00
2018-10-09T20:12:23.845Z,13.73
2018-10-09T20:14:51.463Z,13.30
2018-10-09T20:17:19.038Z,14.33
2018-10-09T20:19:47.502Z,15.80
2018-10-09T20:22:16.508Z,21.55
2018-10-09T20:24:44.233Z,21.40
2018-10-09T20:27:11.665Z,23.00
2018-10-09T20:29:40.073Z,21.10
2018-10-09T20:32:07.651Z,20.07
2018-10-09T20:34:35.232Z,15.73
2018-10-09T20:37:04.007Z,16.10
2018-10-09T20:39:31.601Z,15.20
2018-10-09T20:41:59.257Z,15.47
2018-10-09T20:44:27.572Z,15.77
2018-10-09T20:46:55.152Z,15.13
2018-10-09T20:49:22.723Z,14.97
2018-10-09T20:51:50.931Z,15.57
2018-10-09T20:54:18.524Z,14.57
2018-10-09T20:56:46.867Z,19.80
2018-10-09T20:59:14.494Z,17.93
2018-10-09T21:01:42.075Z,17.13
2018-10-09T21:04:09.657Z,17.20
2018-10-09T21:06:37.287Z,17.30
2018-10-09T21:09:04.871Z,17.50
2018-10-09T21:11:32.443Z,16.43
2018-10-09T21:14:00.091Z,15.40
2018-10-09T21:16:27.666Z,16.67
2018-10-09T21:18:55.236Z,17.53
2018-10-09T21:21:22.839Z,16.53
2018-10-09T21:23:50.419Z,19.10
2018-10-09T21:26:18.505Z,16.10
2018-10-09T21:28:46.087Z,16.13
2018-10-09T21:31:13.689Z,16.33
2018-10-09T21:33:42.027Z,16.13
2018-10-09T21:36:09.604Z,15.80
2018-10-09T21:38:37.188Z,18.23
2018-10-09T21:41:04.845Z,16.17
2018-10-09T21:43:33.193Z,15.97
2018-10-09T21:46:00.761Z,14.87
2018-10-09T21:48:28.419Z,14.87
2018-10-09T21:50:56.000Z,17.30
2018-10-09T21:53:23.570Z,15.10
2018-10-09T21:55:52.020Z,15.00
2018-10-09T21:58:19.596Z,14.67
2018-10-09T22:00:47.172Z,14.20
2018-10-09T22:03:14.798Z,14.97
2018-10-09T22:05:42.390Z,15.57
2018-10-09T22:08:16.411Z,15.37
2018-10-09T22:10:44.553Z,15.57
2018-10-09T22:13:12.123Z,15.47
2018-10-09T22:15:39.695Z,15.60
2018-10-09T22:18:08.074Z,15.00
2018-10-09T22:20:35.645Z,14.33
2018-10-09T22:23:05.015Z,14.23
2018-10-09T22:25:32.597Z,14.57
2018-10-09T22:28:00.172Z,13.90
2018-10-09T22:30:27.807Z,14.77
2018-10-09T22:32:55.373Z,13.87
2018-10-09T22:35:22.945Z,14.17
2018-10-09T22:37:50.569Z,14.03
2018-10-09T22:40:18.459Z,13.43
2018-10-09T22:42:46.028Z,14.93
2018-10-09T22:45:13.653Z,13.83
2018-10-09T22:47:41.234Z,13.47
2018-10-09T22:50:08.804Z,13.73
2018-10-09T22:52:36.788Z,15.00
2018-10-09T22:55:04.379Z,16.00
2018-10-09T22:57:33.027Z,13.70
2018-10-09T23:00:00.624Z,15.30
2018-10-09T23:02:28.980Z,15.10
2018-10-09T23:04:57.172Z,14.70
2018-10-09T23:07:24.992Z,14.50
2018-10-09T23:09:52.570Z,14.23
2018-10-09T23:12:20.236Z,14.57
2018-10-09T23:14:47.810Z,17.53
2018-10-09T23:17:15.380Z,14.57
2018-10-09T23:19:42.980Z,13.70
2018-10-09T23:22:10.554Z,12.90
2018-10-09T23:24:38.160Z,13.87
2018-10-09T23:27:05.746Z,14.10
2018-10-09T23:29:33.321Z,14.57
2018-10-09T23:32:00.954Z,15.83
2018-10-09T23:34:29.301Z,17.20
2018-10-09T23:36:56.880Z,16.63
2018-10-09T23:39:24.487Z,17.00
2018-10-09T23:41:52.062Z,17.98
2018-10-09T23:44:19.640Z,14.63
2018-10-09T23:46:47.249Z,16.03
2018-10-09T23:49:15.602Z,14.83
2018-10-09T23:51:43.168Z,14.27
2018-10-09T23:54:10.798Z,14.13
2018-10-09T23:56:38.388Z,13.90
2018-10-09T23:59:05.958Z,13.73
